PWSweather.com
Personal Weather Stations
Station Observations
PRATO
PratoIT 59100

PratoIT 59100

Lat: 43.8956799, Lon: 11.0845155

Elevation: 164

Station Type: Davis Vantage Vue

http://www.meteoprato.it

High Low Average
Temperature 57.6°F14.2°C 48.8°F9.3°C 52.8°F11.6°C
Dew Point 51.7°F10.9°C 46.4°F8.0°C 49.3°F9.6°C
Winds 2.9 mph 4.7 kmh Calm Calm Calm NNECalm NNE
Wind Gusts 6.0 mph9.7 kmh -- 1.0 mph1.6 kmh
Humidity 95% 75% 88%
Pressure 29.91 in1012.9 mb 29.84 in1010.5 mb -
Precipitation 0.08 in2.0 mm - -
Hour Temp Dew Point Humidity Winds Wind Gusts Pressure Precip Precip Rate Daily Precip Total
12:00 AM 53.6°F12.0°C 49.8°F9.9°C 87% Calm Calm 2.0 mph3.2 kmh 29.89 in1012.2 mb 0.00 in0.0 mm 0.00 in0.0 mm 0.00 in0.0 mm
12:05 AM 53.6°F12.0°C 49.8°F9.9°C 87% Calm Calm 2.0 mph3.2 kmh 29.89 in1012.2 mb 0.00 in0.0 mm 0.00 in0.0 mm 0.00 in0.0 mm
12:10 AM 53.6°F12.0°C 49.8°F9.9°C 87% Calm Calm 2.0 mph3.2 kmh 29.90 in1012.5 mb 0.00 in0.0 mm 0.00 in0.0 mm 0.00 in0.0 mm
12:15 AM 53.6°F12.0°C 49.8°F9.9°C 87% Calm Calm -- 29.89 in1012.2 mb 0.00 in0.0 mm 0.00 in0.0 mm 0.00 in0.0 mm
12:20 AM 53.6°F12.0°C 49.8°F9.9°C 87% Calm Calm -- 29.90 in1012.5 mb 0.00 in0.0 mm 0.00 in0.0 mm 0.00 in0.0 mm
12:25 AM 53.6°F12.0°C 49.8°F9.9°C 87% Calm Calm -- 29.89 in1012.2 mb 0.00 in0.0 mm 0.00 in0.0 mm 0.00 in0.0 mm
12:30 AM 53.5°F11.9°C 49.7°F9.8°C 87% Calm Calm -- 29.90 in1012.5 mb 0.00 in0.0 mm 0.00 in0.0 mm 0.00 in0.0 mm
12:35 AM 53.5°F11.9°C 49.7°F9.8°C 87% Calm Calm -- 29.89 in1012.2 mb 0.00 in0.0 mm 0.00 in0.0 mm 0.00 in0.0 mm
12:40 AM 53.5°F11.9°C 49.7°F9.8°C 87% Calm Calm -- 29.89 in1012.2 mb 0.00 in0.0 mm 0.00 in0.0 mm 0.00 in0.0 mm
12:45 AM 53.4°F11.9°C 49.6°F9.8°C 87% Calm Calm -- 29.89 in1012.2 mb 0.00 in0.0 mm 0.00 in0.0 mm 0.00 in0.0 mm
12:50 AM 53.4°F11.9°C 49.6°F9.8°C 87% Calm Calm -- 29.89 in1012.2 mb 0.00 in0.0 mm 0.00 in0.0 mm 0.00 in0.0 mm
12:55 AM 53.4°F11.9°C 49.6°F9.8°C 87% Calm Calm -- 29.89 in1012.2 mb 0.00 in0.0 mm 0.00 in0.0 mm 0.00 in0.0 mm
01:00 AM 53.3°F11.8°C 49.8°F9.9°C 88% Calm Calm -- 29.89 in1012.2 mb 0.00 in0.0 mm 0.00 in0.0 mm 0.00 in0.0 mm
01:05 AM 53.3°F11.8°C 49.5°F9.7°C 87% Calm Calm -- 29.89 in1012.2 mb 0.00 in0.0 mm 0.00 in0.0 mm 0.00 in0.0 mm
01:10 AM 53.3°F11.8°C 49.5°F9.7°C 87% Calm Calm -- 29.89 in1012.2 mb 0.00 in0.0 mm 0.00 in0.0 mm 0.00 in0.0 mm
01:15 AM 53.2°F11.8°C 49.4°F9.7°C 87% Calm Calm -- 29.90 in1012.5 mb 0.00 in0.0 mm 0.00 in0.0 mm 0.00 in0.0 mm
01:20 AM 53.2°F11.8°C 49.4°F9.7°C 87% Calm Calm -- 29.90 in1012.5 mb 0.00 in0.0 mm 0.00 in0.0 mm 0.00 in0.0 mm
01:25 AM 53.2°F11.8°C 49.4°F9.7°C 87% Calm Calm -- 29.90 in1012.5 mb 0.00 in0.0 mm 0.00 in0.0 mm 0.00 in0.0 mm
01:30 AM 53.2°F11.8°C 49.4°F9.7°C 87% Calm Calm -- 29.90 in1012.5 mb 0.00 in0.0 mm 0.00 in0.0 mm 0.00 in0.0 mm
01:35 AM 53.2°F11.8°C 49.4°F9.7°C 87% Calm Calm -- 29.90 in1012.5 mb 0.00 in0.0 mm 0.00 in0.0 mm 0.00 in0.0 mm
01:40 AM 53.1°F11.7°C 49.3°F9.6°C 87% Calm Calm -- 29.90 in1012.5 mb 0.00 in0.0 mm 0.00 in0.0 mm 0.00 in0.0 mm
01:45 AM 53.1°F11.7°C 49.3°F9.6°C 87% Calm Calm -- 29.90 in1012.5 mb 0.00 in0.0 mm 0.00 in0.0 mm 0.00 in0.0 mm
01:50 AM 53.0°F11.7°C 49.2°F9.6°C 87% Calm Calm -- 29.90 in1012.5 mb 0.00 in0.0 mm 0.00 in0.0 mm 0.00 in0.0 mm
01:55 AM 53.0°F11.7°C 49.2°F9.6°C 87% Calm Calm -- 29.90 in1012.5 mb 0.00 in0.0 mm 0.00 in0.0 mm 0.00 in0.0 mm
02:00 AM 53.0°F11.7°C 49.5°F9.7°C 88% Calm Calm -- 29.90 in1012.5 mb 0.00 in0.0 mm 0.00 in0.0 mm 0.00 in0.0 mm
02:05 AM 53.0°F11.7°C 49.5°F9.7°C 88% Calm Calm -- 29.90 in1012.5 mb 0.00 in0.0 mm 0.00 in0.0 mm 0.00 in0.0 mm
02:10 AM 53.0°F11.7°C 49.5°F9.7°C 88% Calm Calm -- 29.91 in1012.9 mb 0.00 in0.0 mm 0.00 in0.0 mm 0.00 in0.0 mm
02:15 AM 53.0°F11.7°C 49.5°F9.7°C 88% Calm Calm 1.0 mph1.6 kmh 29.90 in1012.5 mb 0.00 in0.0 mm 0.00 in0.0 mm 0.00 in0.0 mm
02:20 AM 52.9°F11.6°C 49.1°F9.5°C 87% Calm Calm 1.0 mph1.6 kmh 29.91 in1012.9 mb 0.00 in0.0 mm 0.00 in0.0 mm 0.00 in0.0 mm
02:25 AM 52.9°F11.6°C 49.1°F9.5°C 87% Calm Calm 1.0 mph1.6 kmh 29.90 in1012.5 mb 0.00 in0.0 mm 0.00 in0.0 mm 0.00 in0.0 mm
02:30 AM 53.0°F11.7°C 49.2°F9.6°C 87% 0.1 mph SSW0.2 kmh SSW 3.0 mph4.8 kmh 29.90 in1012.5 mb 0.00 in0.0 mm 0.00 in0.0 mm 0.00 in0.0 mm
02:35 AM 53.0°F11.7°C 49.2°F9.6°C 87% 0.6 mph SW1.0 kmh SW 4.0 mph6.4 kmh 29.90 in1012.5 mb 0.00 in0.0 mm 0.00 in0.0 mm 0.00 in0.0 mm
02:40 AM 52.8°F11.6°C 49.3°F9.6°C 88% 1.4 mph SW2.3 kmh SW 6.0 mph9.7 kmh 29.90 in1012.5 mb 0.01 in0.3 mm 0.12 in3.0 mm 0.01 in0.3 mm
02:45 AM 52.7°F11.5°C 49.5°F9.7°C 89% 1.9 mph SW3.1 kmh SW 6.0 mph9.7 kmh 29.90 in1012.5 mb 0.01 in0.3 mm 0.00 in0.0 mm 0.01 in0.3 mm
02:50 AM 52.5°F11.4°C 49.4°F9.7°C 89% 1.4 mph SW2.3 kmh SW 3.0 mph4.8 kmh 29.90 in1012.5 mb 0.01 in0.3 mm 0.00 in0.0 mm 0.01 in0.3 mm
02:55 AM 52.4°F11.3°C 49.6°F9.8°C 90% 0.4 mph 0.6 kmh -- 29.90 in1012.5 mb 0.01 in0.3 mm 0.00 in0.0 mm 0.01 in0.3 mm
03:00 AM 52.3°F11.3°C 49.5°F9.7°C 90% Calm Calm -- 29.90 in1012.5 mb 0.02 in0.5 mm 0.01 in0.3 mm 0.02 in0.5 mm
03:05 AM 52.3°F11.3°C 49.5°F9.7°C 90% Calm Calm -- 29.90 in1012.5 mb 0.02 in0.5 mm 0.00 in0.0 mm 0.02 in0.5 mm
03:10 AM 52.2°F11.2°C 49.4°F9.7°C 90% Calm Calm -- 29.90 in1012.5 mb 0.02 in0.5 mm 0.00 in0.0 mm 0.02 in0.5 mm
03:15 AM 52.1°F11.2°C 49.6°F9.8°C 91% Calm Calm -- 29.90 in1012.5 mb 0.02 in0.5 mm 0.00 in0.0 mm 0.02 in0.5 mm
03:20 AM 52.0°F11.1°C 49.5°F9.7°C 91% Calm Calm -- 29.90 in1012.5 mb 0.02 in0.5 mm 0.00 in0.0 mm 0.02 in0.5 mm
03:25 AM 52.1°F11.2°C 49.6°F9.8°C 91% Calm Calm -- 29.89 in1012.2 mb 0.02 in0.5 mm 0.00 in0.0 mm 0.02 in0.5 mm
03:30 AM 52.0°F11.1°C 49.5°F9.7°C 91% Calm Calm -- 29.89 in1012.2 mb 0.02 in0.5 mm 0.00 in0.0 mm 0.02 in0.5 mm
03:35 AM 51.8°F11.0°C 49.5°F9.7°C 92% Calm Calm -- 29.89 in1012.2 mb 0.02 in0.5 mm 0.00 in0.0 mm 0.02 in0.5 mm
03:40 AM 51.8°F11.0°C 49.5°F9.7°C 92% Calm Calm -- 29.89 in1012.2 mb 0.01 in0.3 mm 0.00 in0.0 mm 0.02 in0.5 mm
03:45 AM 51.8°F11.0°C 49.5°F9.7°C 92% Calm Calm -- 29.89 in1012.2 mb 0.01 in0.3 mm 0.00 in0.0 mm 0.02 in0.5 mm
03:50 AM 51.8°F11.0°C 49.5°F9.7°C 92% Calm Calm -- 29.89 in1012.2 mb 0.01 in0.3 mm 0.00 in0.0 mm 0.02 in0.5 mm
03:55 AM 51.9°F11.1°C 49.6°F9.8°C 92% Calm Calm -- 29.89 in1012.2 mb 0.01 in0.3 mm 0.00 in0.0 mm 0.02 in0.5 mm
04:00 AM 51.9°F11.1°C 49.6°F9.8°C 92% Calm Calm -- 29.89 in1012.2 mb 0.00 in0.0 mm 0.00 in0.0 mm 0.02 in0.5 mm
04:05 AM 51.9°F11.1°C 49.6°F9.8°C 92% Calm Calm -- 29.89 in1012.2 mb 0.00 in0.0 mm 0.00 in0.0 mm 0.02 in0.5 mm
04:10 AM 51.9°F11.1°C 49.6°F9.8°C 92% Calm Calm -- 29.89 in1012.2 mb 0.00 in0.0 mm 0.00 in0.0 mm 0.02 in0.5 mm
04:15 AM 51.8°F11.0°C 49.5°F9.7°C 92% 0.1 mph SSW0.2 kmh SSW 5.0 mph8.0 kmh 29.89 in1012.2 mb 0.00 in0.0 mm 0.00 in0.0 mm 0.02 in0.5 mm
04:20 AM 51.8°F11.0°C 49.5°F9.7°C 92% 0.6 mph SSW1.0 kmh SSW 6.0 mph9.7 kmh 29.89 in1012.2 mb 0.00 in0.0 mm 0.00 in0.0 mm 0.02 in0.5 mm
04:25 AM 51.8°F11.0°C 49.5°F9.7°C 92% 1.5 mph SSW2.4 kmh SSW 6.0 mph9.7 kmh 29.89 in1012.2 mb 0.00 in0.0 mm 0.00 in0.0 mm 0.02 in0.5 mm
04:30 AM 51.8°F11.0°C 49.5°F9.7°C 92% 1.8 mph SSW2.9 kmh SSW 6.0 mph9.7 kmh 29.89 in1012.2 mb 0.00 in0.0 mm 0.00 in0.0 mm 0.02 in0.5 mm
04:35 AM 51.7°F10.9°C 49.2°F9.6°C 91% 1.4 mph SW2.3 kmh SW 4.0 mph6.4 kmh 29.89 in1012.2 mb 0.00 in0.0 mm 0.00 in0.0 mm 0.02 in0.5 mm
04:40 AM 51.7°F10.9°C 49.2°F9.6°C 91% 0.8 mph SW1.3 kmh SW 4.0 mph6.4 kmh 29.89 in1012.2 mb 0.00 in0.0 mm 0.00 in0.0 mm 0.02 in0.5 mm
04:45 AM 51.7°F10.9°C 49.5°F9.7°C 92% 0.3 mph SW0.5 kmh SW 4.0 mph6.4 kmh 29.89 in1012.2 mb 0.00 in0.0 mm 0.00 in0.0 mm 0.02 in0.5 mm
04:50 AM 51.7°F10.9°C 49.5°F9.7°C 92% Calm Calm -- 29.89 in1012.2 mb 0.00 in0.0 mm 0.00 in0.0 mm 0.02 in0.5 mm
04:55 AM 51.7°F10.9°C 49.5°F9.7°C 92% Calm Calm -- 29.89 in1012.2 mb 0.00 in0.0 mm 0.00 in0.0 mm 0.02 in0.5 mm
05:00 AM 51.7°F10.9°C 49.5°F9.7°C 92% Calm Calm -- 29.89 in1012.2 mb 0.01 in0.3 mm 0.01 in0.3 mm 0.02 in0.5 mm
05:05 AM 51.7°F10.9°C 49.5°F9.7°C 92% Calm Calm -- 29.89 in1012.2 mb 0.01 in0.3 mm 0.00 in0.0 mm 0.02 in0.5 mm
05:10 AM 51.6°F10.9°C 49.4°F9.7°C 92% Calm Calm -- 29.89 in1012.2 mb 0.01 in0.3 mm 0.00 in0.0 mm 0.02 in0.5 mm
05:15 AM 51.6°F10.9°C 49.4°F9.7°C 92% Calm Calm -- 29.89 in1012.2 mb 0.01 in0.3 mm 0.00 in0.0 mm 0.02 in0.5 mm
05:20 AM 51.6°F10.9°C 49.4°F9.7°C 92% Calm Calm -- 29.89 in1012.2 mb 0.01 in0.3 mm 0.00 in0.0 mm 0.02 in0.5 mm
05:25 AM 51.7°F10.9°C 49.5°F9.7°C 92% Calm Calm -- 29.89 in1012.2 mb 0.01 in0.3 mm 0.00 in0.0 mm 0.02 in0.5 mm
05:30 AM 51.7°F10.9°C 49.5°F9.7°C 92% Calm Calm -- 29.89 in1012.2 mb 0.01 in0.3 mm 0.00 in0.0 mm 0.02 in0.5 mm
05:35 AM 51.7°F10.9°C 49.5°F9.7°C 92% Calm Calm -- 29.89 in1012.2 mb 0.02 in0.5 mm 0.12 in3.0 mm 0.04 in1.0 mm
05:40 AM 51.6°F10.9°C 49.4°F9.7°C 92% Calm Calm -- 29.89 in1012.2 mb 0.04 in1.0 mm 0.24 in6.1 mm 0.06 in1.5 mm
05:45 AM 51.5°F10.8°C 49.3°F9.6°C 92% Calm Calm -- 29.89 in1012.2 mb 0.05 in1.3 mm 0.12 in3.0 mm 0.06 in1.5 mm
05:50 AM 51.6°F10.9°C 49.4°F9.7°C 92% Calm Calm -- 29.89 in1012.2 mb 0.05 in1.3 mm 0.00 in0.0 mm 0.06 in1.5 mm
05:55 AM 51.5°F10.8°C 49.3°F9.6°C 92% Calm Calm -- 29.89 in1012.2 mb 0.06 in1.5 mm 0.12 in3.0 mm 0.07 in1.8 mm
06:00 AM 51.5°F10.8°C 49.5°F9.7°C 93% Calm Calm -- 29.89 in1012.2 mb 0.05 in1.3 mm 0.00 in0.0 mm 0.07 in1.8 mm
06:05 AM 51.4°F10.8°C 49.4°F9.7°C 93% Calm Calm -- 29.89 in1012.2 mb 0.05 in1.3 mm 0.00 in0.0 mm 0.07 in1.8 mm
06:10 AM 51.4°F10.8°C 49.4°F9.7°C 93% Calm Calm -- 29.89 in1012.2 mb 0.05 in1.3 mm 0.00 in0.0 mm 0.07 in1.8 mm
06:15 AM 51.4°F10.8°C 49.4°F9.7°C 93% Calm Calm -- 29.89 in1012.2 mb 0.05 in1.3 mm 0.00 in0.0 mm 0.07 in1.8 mm
06:20 AM 51.3°F10.7°C 49.3°F9.6°C 93% Calm Calm -- 29.89 in1012.2 mb 0.05 in1.3 mm 0.00 in0.0 mm 0.07 in1.8 mm
06:25 AM 51.2°F10.7°C 49.2°F9.6°C 93% Calm Calm -- 29.89 in1012.2 mb 0.05 in1.3 mm 0.00 in0.0 mm 0.07 in1.8 mm
06:30 AM 51.2°F10.7°C 49.2°F9.6°C 93% Calm Calm -- 29.89 in1012.2 mb 0.05 in1.3 mm 0.00 in0.0 mm 0.07 in1.8 mm
06:35 AM 51.1°F10.6°C 49.4°F9.7°C 94% Calm Calm -- 29.89 in1012.2 mb 0.03 in0.8 mm 0.00 in0.0 mm 0.07 in1.8 mm
06:40 AM 51.0°F10.6°C 49.3°F9.6°C 94% Calm Calm -- 29.89 in1012.2 mb 0.02 in0.5 mm 0.00 in0.0 mm 0.07 in1.8 mm
06:45 AM 50.9°F10.5°C 49.2°F9.6°C 94% Calm Calm -- 29.88 in1011.9 mb 0.01 in0.3 mm 0.00 in0.0 mm 0.07 in1.8 mm
06:50 AM 50.8°F10.4°C 49.1°F9.5°C 94% Calm Calm -- 29.89 in1012.2 mb 0.00 in0.0 mm 0.00 in0.0 mm 0.07 in1.8 mm
06:55 AM 50.8°F10.4°C 49.1°F9.5°C 94% Calm Calm -- 29.89 in1012.2 mb 0.00 in0.0 mm 0.00 in0.0 mm 0.07 in1.8 mm
07:00 AM 50.9°F10.5°C 49.2°F9.6°C 94% Calm Calm -- 29.88 in1011.9 mb 0.00 in0.0 mm 0.00 in0.0 mm 0.07 in1.8 mm
07:05 AM 50.9°F10.5°C 49.2°F9.6°C 94% Calm Calm -- 29.88 in1011.9 mb 0.00 in0.0 mm 0.00 in0.0 mm 0.07 in1.8 mm
07:10 AM 50.8°F10.4°C 49.1°F9.5°C 94% Calm Calm -- 29.89 in1012.2 mb 0.00 in0.0 mm 0.00 in0.0 mm 0.07 in1.8 mm
07:15 AM 50.8°F10.4°C 49.1°F9.5°C 94% Calm Calm -- 29.89 in1012.2 mb 0.00 in0.0 mm 0.00 in0.0 mm 0.07 in1.8 mm
07:20 AM 50.7°F10.4°C 49.0°F9.4°C 94% Calm Calm -- 29.89 in1012.2 mb 0.00 in0.0 mm 0.00 in0.0 mm 0.07 in1.8 mm
07:25 AM 50.7°F10.4°C 49.0°F9.4°C 94% Calm Calm -- 29.89 in1012.2 mb 0.00 in0.0 mm 0.00 in0.0 mm 0.07 in1.8 mm
07:30 AM 50.6°F10.3°C 48.9°F9.4°C 94% Calm Calm -- 29.89 in1012.2 mb 0.00 in0.0 mm 0.00 in0.0 mm 0.07 in1.8 mm
07:35 AM 50.6°F10.3°C 48.9°F9.4°C 94% Calm Calm -- 29.89 in1012.2 mb 0.00 in0.0 mm 0.00 in0.0 mm 0.07 in1.8 mm
07:40 AM 50.5°F10.3°C 48.8°F9.3°C 94% Calm Calm -- 29.89 in1012.2 mb 0.00 in0.0 mm 0.00 in0.0 mm 0.07 in1.8 mm
07:45 AM 50.5°F10.3°C 48.8°F9.3°C 94% Calm Calm -- 29.89 in1012.2 mb 0.00 in0.0 mm 0.00 in0.0 mm 0.07 in1.8 mm
07:50 AM 50.3°F10.2°C 48.6°F9.2°C 94% Calm Calm -- 29.89 in1012.2 mb 0.00 in0.0 mm 0.00 in0.0 mm 0.07 in1.8 mm
07:55 AM 50.1°F10.1°C 48.4°F9.1°C 94% Calm Calm -- 29.89 in1012.2 mb 0.01 in0.3 mm 0.12 in3.0 mm 0.08 in2.0 mm
08:00 AM 50.0°F10.0°C 48.3°F9.1°C 94% Calm Calm -- 29.89 in1012.2 mb 0.01 in0.3 mm 0.00 in0.0 mm 0.08 in2.0 mm
08:05 AM 50.1°F10.1°C 48.4°F9.1°C 94% Calm Calm -- 29.89 in1012.2 mb 0.01 in0.3 mm 0.00 in0.0 mm 0.08 in2.0 mm
08:10 AM 50.0°F10.0°C 48.3°F9.1°C 94% Calm Calm -- 29.89 in1012.2 mb 0.01 in0.3 mm 0.00 in0.0 mm 0.08 in2.0 mm
08:15 AM 49.9°F9.9°C 48.2°F9.0°C 94% Calm Calm -- 29.89 in1012.2 mb 0.01 in0.3 mm 0.00 in0.0 mm 0.08 in2.0 mm
08:20 AM 49.9°F9.9°C 48.2°F9.0°C 94% Calm Calm -- 29.90 in1012.5 mb 0.01 in0.3 mm 0.00 in0.0 mm 0.08 in2.0 mm
08:25 AM 49.9°F9.9°C 48.2°F9.0°C 94% Calm Calm -- 29.90 in1012.5 mb 0.01 in0.3 mm 0.00 in0.0 mm 0.08 in2.0 mm
08:30 AM 49.8°F9.9°C 48.1°F8.9°C 94% Calm Calm -- 29.90 in1012.5 mb 0.01 in0.3 mm 0.00 in0.0 mm 0.08 in2.0 mm
08:35 AM 49.6°F9.8°C 47.9°F8.8°C 94% Calm Calm -- 29.90 in1012.5 mb 0.01 in0.3 mm 0.00 in0.0 mm 0.08 in2.0 mm
08:40 AM 49.7°F9.8°C 48.0°F8.9°C 94% Calm Calm -- 29.90 in1012.5 mb 0.01 in0.3 mm 0.00 in0.0 mm 0.08 in2.0 mm
08:45 AM 49.7°F9.8°C 48.0°F8.9°C 94% Calm Calm -- 29.90 in1012.5 mb 0.01 in0.3 mm 0.00 in0.0 mm 0.08 in2.0 mm
08:50 AM 49.8°F9.9°C 48.4°F9.1°C 95% Calm Calm -- 29.90 in1012.5 mb 0.01 in0.3 mm 0.00 in0.0 mm 0.08 in2.0 mm
08:55 AM 49.9°F9.9°C 48.2°F9.0°C 94% Calm Calm -- 29.90 in1012.5 mb 0.00 in0.0 mm 0.00 in0.0 mm 0.08 in2.0 mm
09:00 AM 50.0°F10.0°C 48.3°F9.1°C 94% Calm Calm -- 29.91 in1012.9 mb 0.00 in0.0 mm 0.00 in0.0 mm 0.08 in2.0 mm
09:05 AM 50.1°F10.1°C 48.7°F9.3°C 95% Calm Calm -- 29.91 in1012.9 mb 0.00 in0.0 mm 0.00 in0.0 mm 0.08 in2.0 mm
09:10 AM 50.3°F10.2°C 48.9°F9.4°C 95% Calm Calm -- 29.91 in1012.9 mb 0.00 in0.0 mm 0.00 in0.0 mm 0.08 in2.0 mm
09:15 AM 50.4°F10.2°C 48.7°F9.3°C 94% Calm Calm -- 29.91 in1012.9 mb 0.00 in0.0 mm 0.00 in0.0 mm 0.08 in2.0 mm
09:20 AM 50.5°F10.3°C 48.8°F9.3°C 94% Calm Calm -- 29.91 in1012.9 mb 0.00 in0.0 mm 0.00 in0.0 mm 0.08 in2.0 mm
09:25 AM 50.8°F10.4°C 49.1°F9.5°C 94% Calm Calm -- 29.91 in1012.9 mb 0.00 in0.0 mm 0.00 in0.0 mm 0.08 in2.0 mm
09:30 AM 51.0°F10.6°C 49.6°F9.8°C 95% Calm Calm -- 29.91 in1012.9 mb 0.00 in0.0 mm 0.00 in0.0 mm 0.08 in2.0 mm
09:35 AM 51.1°F10.6°C 49.4°F9.7°C 94% Calm Calm -- 29.91 in1012.9 mb 0.00 in0.0 mm 0.00 in0.0 mm 0.08 in2.0 mm
09:40 AM 51.1°F10.6°C 49.4°F9.7°C 94% Calm Calm -- 29.91 in1012.9 mb 0.00 in0.0 mm 0.00 in0.0 mm 0.08 in2.0 mm
09:45 AM 51.3°F10.7°C 49.6°F9.8°C 94% Calm Calm -- 29.91 in1012.9 mb 0.00 in0.0 mm 0.00 in0.0 mm 0.08 in2.0 mm
09:50 AM 51.5°F10.8°C 49.8°F9.9°C 94% Calm Calm -- 29.91 in1012.9 mb 0.00 in0.0 mm 0.00 in0.0 mm 0.08 in2.0 mm
09:55 AM 51.5°F10.8°C 49.8°F9.9°C 94% Calm Calm -- 29.91 in1012.9 mb 0.00 in0.0 mm 0.00 in0.0 mm 0.08 in2.0 mm
10:00 AM 51.5°F10.8°C 49.8°F9.9°C 94% Calm Calm -- 29.91 in1012.9 mb 0.00 in0.0 mm 0.00 in0.0 mm 0.08 in2.0 mm
10:05 AM 51.6°F10.9°C 49.9°F9.9°C 94% Calm Calm -- 29.91 in1012.9 mb 0.00 in0.0 mm 0.00 in0.0 mm 0.08 in2.0 mm
10:10 AM 51.8°F11.0°C 50.1°F10.1°C 94% Calm Calm -- 29.91 in1012.9 mb 0.00 in0.0 mm 0.00 in0.0 mm 0.08 in2.0 mm
10:15 AM 51.9°F11.1°C 50.2°F10.1°C 94% Calm Calm -- 29.91 in1012.9 mb 0.00 in0.0 mm 0.00 in0.0 mm 0.08 in2.0 mm
10:20 AM 51.9°F11.1°C 50.2°F10.1°C 94% Calm Calm -- 29.91 in1012.9 mb 0.00 in0.0 mm 0.00 in0.0 mm 0.08 in2.0 mm
10:25 AM 51.9°F11.1°C 49.9°F9.9°C 93% Calm Calm -- 29.91 in1012.9 mb 0.00 in0.0 mm 0.00 in0.0 mm 0.08 in2.0 mm
10:30 AM 51.9°F11.1°C 49.9°F9.9°C 93% Calm Calm -- 29.91 in1012.9 mb 0.00 in0.0 mm 0.00 in0.0 mm 0.08 in2.0 mm
10:35 AM 52.0°F11.1°C 50.0°F10.0°C 93% Calm Calm -- 29.90 in1012.5 mb 0.00 in0.0 mm 0.00 in0.0 mm 0.08 in2.0 mm
10:40 AM 52.4°F11.3°C 50.7°F10.4°C 94% Calm Calm -- 29.90 in1012.5 mb 0.00 in0.0 mm 0.00 in0.0 mm 0.08 in2.0 mm
10:45 AM 52.7°F11.5°C 51.0°F10.6°C 94% Calm Calm -- 29.90 in1012.5 mb 0.00 in0.0 mm 0.00 in0.0 mm 0.08 in2.0 mm
10:50 AM 53.0°F11.7°C 51.0°F10.6°C 93% Calm Calm -- 29.90 in1012.5 mb 0.00 in0.0 mm 0.00 in0.0 mm 0.08 in2.0 mm
10:55 AM 53.5°F11.9°C 51.5°F10.8°C 93% Calm Calm -- 29.90 in1012.5 mb 0.00 in0.0 mm 0.00 in0.0 mm 0.08 in2.0 mm
11:00 AM 53.7°F12.1°C 51.7°F10.9°C 93% Calm Calm -- 29.90 in1012.5 mb 0.00 in0.0 mm 0.00 in0.0 mm 0.08 in2.0 mm
11:05 AM 54.1°F12.3°C 51.5°F10.8°C 91% Calm Calm -- 29.90 in1012.5 mb 0.00 in0.0 mm 0.00 in0.0 mm 0.08 in2.0 mm
11:10 AM 54.3°F12.4°C 51.1°F10.6°C 89% Calm Calm -- 29.90 in1012.5 mb 0.00 in0.0 mm 0.00 in0.0 mm 0.08 in2.0 mm
11:15 AM 54.9°F12.7°C 51.4°F10.8°C 88% Calm Calm -- 29.90 in1012.5 mb 0.00 in0.0 mm 0.00 in0.0 mm 0.08 in2.0 mm
11:20 AM 55.4°F13.0°C 51.3°F10.7°C 86% Calm Calm -- 29.90 in1012.5 mb 0.00 in0.0 mm 0.00 in0.0 mm 0.08 in2.0 mm
11:25 AM 55.4°F13.0°C 50.6°F10.3°C 84% Calm Calm -- 29.90 in1012.5 mb 0.00 in0.0 mm 0.00 in0.0 mm 0.08 in2.0 mm
11:30 AM 55.7°F13.2°C 50.3°F10.2°C 82% Calm Calm -- 29.90 in1012.5 mb 0.00 in0.0 mm 0.00 in0.0 mm 0.08 in2.0 mm
11:35 AM 56.1°F13.4°C 50.7°F10.4°C 82% Calm Calm -- 29.89 in1012.2 mb 0.00 in0.0 mm 0.00 in0.0 mm 0.08 in2.0 mm
11:40 AM 56.4°F13.6°C 50.6°F10.3°C 81% Calm Calm -- 29.89 in1012.2 mb 0.00 in0.0 mm 0.00 in0.0 mm 0.08 in2.0 mm
11:45 AM 56.7°F13.7°C 50.6°F10.3°C 80% Calm Calm -- 29.89 in1012.2 mb 0.00 in0.0 mm 0.00 in0.0 mm 0.08 in2.0 mm
11:50 AM 56.8°F13.8°C 50.4°F10.2°C 79% Calm Calm -- 29.89 in1012.2 mb 0.00 in0.0 mm 0.00 in0.0 mm 0.08 in2.0 mm
11:55 AM 56.5°F13.6°C 50.1°F10.1°C 79% Calm Calm 3.0 mph4.8 kmh 29.89 in1012.2 mb 0.00 in0.0 mm 0.00 in0.0 mm 0.08 in2.0 mm
12:00 PM 56.4°F13.6°C 49.6°F9.8°C 78% Calm Calm 3.0 mph4.8 kmh 29.89 in1012.2 mb 0.00 in0.0 mm 0.00 in0.0 mm 0.08 in2.0 mm
12:05 PM 56.4°F13.6°C 49.6°F9.8°C 78% Calm Calm 1.0 mph1.6 kmh 29.89 in1012.2 mb 0.00 in0.0 mm 0.00 in0.0 mm 0.08 in2.0 mm
12:10 PM 56.5°F13.6°C 49.7°F9.8°C 78% Calm Calm -- 29.88 in1011.9 mb 0.00 in0.0 mm 0.00 in0.0 mm 0.08 in2.0 mm
12:15 PM 56.3°F13.5°C 49.5°F9.7°C 78% Calm Calm -- 29.88 in1011.9 mb 0.00 in0.0 mm 0.00 in0.0 mm 0.08 in2.0 mm
12:20 PM 56.2°F13.4°C 49.8°F9.9°C 79% Calm Calm -- 29.88 in1011.9 mb 0.00 in0.0 mm 0.00 in0.0 mm 0.08 in2.0 mm
12:25 PM 56.2°F13.4°C 49.8°F9.9°C 79% Calm Calm -- 29.88 in1011.9 mb 0.00 in0.0 mm 0.00 in0.0 mm 0.08 in2.0 mm
12:30 PM 56.5°F13.6°C 50.1°F10.1°C 79% Calm Calm -- 29.88 in1011.9 mb 0.00 in0.0 mm 0.00 in0.0 mm 0.08 in2.0 mm
12:35 PM 56.6°F13.7°C 50.2°F10.1°C 79% Calm Calm -- 29.88 in1011.9 mb 0.00 in0.0 mm 0.00 in0.0 mm 0.08 in2.0 mm
12:40 PM 56.5°F13.6°C 50.1°F10.1°C 79% Calm Calm -- 29.87 in1011.5 mb 0.00 in0.0 mm 0.00 in0.0 mm 0.08 in2.0 mm
12:45 PM 56.6°F13.7°C 49.8°F9.9°C 78% Calm Calm -- 29.87 in1011.5 mb 0.00 in0.0 mm 0.00 in0.0 mm 0.08 in2.0 mm
12:50 PM 56.7°F13.7°C 50.3°F10.2°C 79% Calm Calm -- 29.87 in1011.5 mb 0.00 in0.0 mm 0.00 in0.0 mm 0.08 in2.0 mm
12:55 PM 56.7°F13.7°C 49.9°F9.9°C 78% Calm Calm -- 29.87 in1011.5 mb 0.00 in0.0 mm 0.00 in0.0 mm 0.08 in2.0 mm
01:00 PM 56.5°F13.6°C 49.7°F9.8°C 78% Calm Calm -- 29.86 in1011.2 mb 0.00 in0.0 mm 0.00 in0.0 mm 0.08 in2.0 mm
01:05 PM 56.7°F13.7°C 49.9°F9.9°C 78% Calm Calm -- 29.86 in1011.2 mb 0.00 in0.0 mm 0.00 in0.0 mm 0.08 in2.0 mm
01:10 PM 56.9°F13.8°C 49.8°F9.9°C 77% Calm Calm -- 29.86 in1011.2 mb 0.00 in0.0 mm 0.00 in0.0 mm 0.08 in2.0 mm
01:15 PM 56.8°F13.8°C 49.7°F9.8°C 77% Calm Calm -- 29.86 in1011.2 mb 0.00 in0.0 mm 0.00 in0.0 mm 0.08 in2.0 mm
01:20 PM 56.7°F13.7°C 49.9°F9.9°C 78% Calm Calm -- 29.86 in1011.2 mb 0.00 in0.0 mm 0.00 in0.0 mm 0.08 in2.0 mm
01:25 PM 57.0°F13.9°C 49.9°F9.9°C 77% Calm Calm -- 29.86 in1011.2 mb 0.00 in0.0 mm 0.00 in0.0 mm 0.08 in2.0 mm
01:30 PM 57.4°F14.1°C 50.6°F10.3°C 78% Calm Calm -- 29.86 in1011.2 mb 0.00 in0.0 mm 0.00 in0.0 mm 0.08 in2.0 mm
01:35 PM 57.6°F14.2°C 50.1°F10.1°C 76% Calm Calm -- 29.86 in1011.2 mb 0.00 in0.0 mm 0.00 in0.0 mm 0.08 in2.0 mm
01:40 PM 57.6°F14.2°C 50.1°F10.1°C 76% Calm Calm -- 29.86 in1011.2 mb 0.00 in0.0 mm 0.00 in0.0 mm 0.08 in2.0 mm
01:45 PM 57.5°F14.2°C 50.0°F10.0°C 76% Calm Calm -- 29.85 in1010.8 mb 0.00 in0.0 mm 0.00 in0.0 mm 0.08 in2.0 mm
01:50 PM 57.5°F14.2°C 49.6°F9.8°C 75% Calm Calm -- 29.85 in1010.8 mb 0.00 in0.0 mm 0.00 in0.0 mm 0.08 in2.0 mm
01:55 PM 57.2°F14.0°C 49.7°F9.8°C 76% Calm Calm -- 29.85 in1010.8 mb 0.00 in0.0 mm 0.00 in0.0 mm 0.08 in2.0 mm
02:00 PM 57.4°F14.1°C 50.2°F10.1°C 77% Calm Calm -- 29.85 in1010.8 mb 0.00 in0.0 mm 0.00 in0.0 mm 0.08 in2.0 mm
02:05 PM 57.4°F14.1°C 49.9°F9.9°C 76% Calm Calm -- 29.85 in1010.8 mb 0.00 in0.0 mm 0.00 in0.0 mm 0.08 in2.0 mm
02:10 PM 57.2°F14.0°C 49.7°F9.8°C 76% Calm Calm -- 29.85 in1010.8 mb 0.00 in0.0 mm 0.00 in0.0 mm 0.08 in2.0 mm
02:15 PM 57.1°F13.9°C 50.0°F10.0°C 77% Calm Calm -- 29.85 in1010.8 mb 0.00 in0.0 mm 0.00 in0.0 mm 0.08 in2.0 mm
02:20 PM 57.2°F14.0°C 50.1°F10.1°C 77% Calm Calm -- 29.85 in1010.8 mb 0.00 in0.0 mm 0.00 in0.0 mm 0.08 in2.0 mm
02:25 PM 56.9°F13.8°C 49.8°F9.9°C 77% Calm Calm -- 29.85 in1010.8 mb 0.00 in0.0 mm 0.00 in0.0 mm 0.08 in2.0 mm
02:30 PM 56.7°F13.7°C 49.9°F9.9°C 78% Calm Calm -- 29.85 in1010.8 mb 0.00 in0.0 mm 0.00 in0.0 mm 0.08 in2.0 mm
02:35 PM 56.6°F13.7°C 49.8°F9.9°C 78% Calm Calm -- 29.84 in1010.5 mb 0.00 in0.0 mm 0.00 in0.0 mm 0.08 in2.0 mm
02:40 PM 56.5°F13.6°C 49.7°F9.8°C 78% Calm Calm -- 29.85 in1010.8 mb 0.00 in0.0 mm 0.00 in0.0 mm 0.08 in2.0 mm
02:45 PM 56.4°F13.6°C 49.6°F9.8°C 78% Calm Calm -- 29.85 in1010.8 mb 0.00 in0.0 mm 0.00 in0.0 mm 0.08 in2.0 mm
02:50 PM 56.3°F13.5°C 49.9°F9.9°C 79% Calm Calm -- 29.85 in1010.8 mb 0.00 in0.0 mm 0.00 in0.0 mm 0.08 in2.0 mm
02:55 PM 56.4°F13.6°C 50.0°F10.0°C 79% Calm Calm -- 29.85 in1010.8 mb 0.00 in0.0 mm 0.00 in0.0 mm 0.08 in2.0 mm
03:00 PM 56.4°F13.6°C 50.0°F10.0°C 79% Calm Calm -- 29.85 in1010.8 mb 0.00 in0.0 mm 0.00 in0.0 mm 0.08 in2.0 mm
03:05 PM 56.4°F13.6°C 50.0°F10.0°C 79% Calm Calm -- 29.85 in1010.8 mb 0.00 in0.0 mm 0.00 in0.0 mm 0.08 in2.0 mm
03:10 PM 56.6°F13.7°C 50.2°F10.1°C 79% Calm Calm -- 29.85 in1010.8 mb 0.00 in0.0 mm 0.00 in0.0 mm 0.08 in2.0 mm
03:15 PM 56.7°F13.7°C 50.3°F10.2°C 79% Calm Calm -- 29.85 in1010.8 mb 0.00 in0.0 mm 0.00 in0.0 mm 0.08 in2.0 mm
03:20 PM 56.6°F13.7°C 50.2°F10.1°C 79% Calm Calm -- 29.85 in1010.8 mb 0.00 in0.0 mm 0.00 in0.0 mm 0.08 in2.0 mm
03:25 PM 56.6°F13.7°C 50.2°F10.1°C 79% Calm Calm -- 29.85 in1010.8 mb 0.00 in0.0 mm 0.00 in0.0 mm 0.08 in2.0 mm
03:30 PM 56.5°F13.6°C 50.7°F10.4°C 81% Calm Calm -- 29.85 in1010.8 mb 0.00 in0.0 mm 0.00 in0.0 mm 0.08 in2.0 mm
03:35 PM 56.2°F13.4°C 50.8°F10.4°C 82% 0.2 mph WSW0.3 kmh WSW 4.0 mph6.4 kmh 29.86 in1011.2 mb 0.00 in0.0 mm 0.00 in0.0 mm 0.08 in2.0 mm
03:40 PM 55.9°F13.3°C 50.8°F10.4°C 83% 0.7 mph WSW1.1 kmh WSW 4.0 mph6.4 kmh 29.85 in1010.8 mb 0.00 in0.0 mm 0.00 in0.0 mm 0.08 in2.0 mm
03:45 PM 55.8°F13.2°C 50.7°F10.4°C 83% 0.9 mph WSW1.4 kmh WSW 2.0 mph3.2 kmh 29.85 in1010.8 mb 0.00 in0.0 mm 0.00 in0.0 mm 0.08 in2.0 mm
03:50 PM 55.8°F13.2°C 51.0°F10.6°C 84% 0.4 mph 0.6 kmh -- 29.85 in1010.8 mb 0.00 in0.0 mm 0.00 in0.0 mm 0.08 in2.0 mm
03:55 PM 55.8°F13.2°C 51.0°F10.6°C 84% Calm Calm -- 29.85 in1010.8 mb 0.00 in0.0 mm 0.00 in0.0 mm 0.08 in2.0 mm
04:00 PM 55.7°F13.2°C 50.9°F10.5°C 84% Calm Calm -- 29.85 in1010.8 mb 0.00 in0.0 mm 0.00 in0.0 mm 0.08 in2.0 mm
04:05 PM 55.4°F13.0°C 50.6°F10.3°C 84% Calm Calm -- 29.85 in1010.8 mb 0.00 in0.0 mm 0.00 in0.0 mm 0.08 in2.0 mm
04:10 PM 55.1°F12.8°C 50.7°F10.4°C 85% Calm Calm -- 29.85 in1010.8 mb 0.00 in0.0 mm 0.00 in0.0 mm 0.08 in2.0 mm
04:15 PM 54.9°F12.7°C 50.5°F10.3°C 85% Calm Calm -- 29.85 in1010.8 mb 0.00 in0.0 mm 0.00 in0.0 mm 0.08 in2.0 mm
04:20 PM 54.7°F12.6°C 50.6°F10.3°C 86% Calm Calm -- 29.85 in1010.8 mb 0.00 in0.0 mm 0.00 in0.0 mm 0.08 in2.0 mm
04:25 PM 54.6°F12.6°C 50.5°F10.3°C 86% Calm Calm -- 29.85 in1010.8 mb 0.00 in0.0 mm 0.00 in0.0 mm 0.08 in2.0 mm
04:30 PM 54.6°F12.6°C 50.8°F10.4°C 87% Calm Calm -- 29.85 in1010.8 mb 0.00 in0.0 mm 0.00 in0.0 mm 0.08 in2.0 mm
04:35 PM 54.6°F12.6°C 50.8°F10.4°C 87% Calm Calm -- 29.86 in1011.2 mb 0.00 in0.0 mm 0.00 in0.0 mm 0.08 in2.0 mm
04:40 PM 54.5°F12.5°C 51.0°F10.6°C 88% Calm Calm -- 29.85 in1010.8 mb 0.00 in0.0 mm 0.00 in0.0 mm 0.08 in2.0 mm
04:45 PM 54.3°F12.4°C 50.8°F10.4°C 88% Calm Calm -- 29.86 in1011.2 mb 0.00 in0.0 mm 0.00 in0.0 mm 0.08 in2.0 mm
04:50 PM 54.1°F12.3°C 50.6°F10.3°C 88% Calm Calm -- 29.86 in1011.2 mb 0.00 in0.0 mm 0.00 in0.0 mm 0.08 in2.0 mm
04:55 PM 54.0°F12.2°C 50.5°F10.3°C 88% Calm Calm -- 29.86 in1011.2 mb 0.00 in0.0 mm 0.00 in0.0 mm 0.08 in2.0 mm
05:00 PM 53.7°F12.1°C 50.2°F10.1°C 88% Calm Calm -- 29.87 in1011.5 mb 0.00 in0.0 mm 0.00 in0.0 mm 0.08 in2.0 mm
05:05 PM 53.6°F12.0°C 50.1°F10.1°C 88% Calm Calm -- 29.87 in1011.5 mb 0.00 in0.0 mm 0.00 in0.0 mm 0.08 in2.0 mm
05:10 PM 53.6°F12.0°C 50.1°F10.1°C 88% Calm Calm -- 29.87 in1011.5 mb 0.00 in0.0 mm 0.00 in0.0 mm 0.08 in2.0 mm
05:15 PM 53.6°F12.0°C 50.1°F10.1°C 88% Calm Calm -- 29.87 in1011.5 mb 0.00 in0.0 mm 0.00 in0.0 mm 0.08 in2.0 mm
05:20 PM 53.6°F12.0°C 50.1°F10.1°C 88% Calm Calm -- 29.87 in1011.5 mb 0.00 in0.0 mm 0.00 in0.0 mm 0.08 in2.0 mm
05:25 PM 53.3°F11.8°C 49.8°F9.9°C 88% Calm Calm -- 29.87 in1011.5 mb 0.00 in0.0 mm 0.00 in0.0 mm 0.08 in2.0 mm
05:30 PM 53.2°F11.8°C 49.7°F9.8°C 88% Calm Calm -- 29.87 in1011.5 mb 0.00 in0.0 mm 0.00 in0.0 mm 0.08 in2.0 mm
05:35 PM 52.9°F11.6°C 49.4°F9.7°C 88% Calm Calm -- 29.87 in1011.5 mb 0.00 in0.0 mm 0.00 in0.0 mm 0.08 in2.0 mm
05:40 PM 52.9°F11.6°C 49.7°F9.8°C 89% Calm Calm -- 29.87 in1011.5 mb 0.00 in0.0 mm 0.00 in0.0 mm 0.08 in2.0 mm
05:45 PM 52.8°F11.6°C 49.6°F9.8°C 89% Calm Calm -- 29.87 in1011.5 mb 0.00 in0.0 mm 0.00 in0.0 mm 0.08 in2.0 mm
05:50 PM 52.8°F11.6°C 49.6°F9.8°C 89% Calm Calm -- 29.87 in1011.5 mb 0.00 in0.0 mm 0.00 in0.0 mm 0.08 in2.0 mm
05:55 PM 52.6°F11.4°C 49.4°F9.7°C 89% Calm Calm -- 29.87 in1011.5 mb 0.00 in0.0 mm 0.00 in0.0 mm 0.08 in2.0 mm
06:00 PM 52.6°F11.4°C 49.4°F9.7°C 89% Calm Calm -- 29.88 in1011.9 mb 0.00 in0.0 mm 0.00 in0.0 mm 0.08 in2.0 mm
06:05 PM 52.5°F11.4°C 49.4°F9.7°C 89% Calm Calm -- 29.88 in1011.9 mb 0.00 in0.0 mm 0.00 in0.0 mm 0.08 in2.0 mm
06:10 PM 52.5°F11.4°C 49.4°F9.7°C 89% Calm Calm -- 29.88 in1011.9 mb 0.00 in0.0 mm 0.00 in0.0 mm 0.08 in2.0 mm
06:15 PM 52.5°F11.4°C 49.4°F9.7°C 89% Calm Calm -- 29.88 in1011.9 mb 0.00 in0.0 mm 0.00 in0.0 mm 0.08 in2.0 mm
06:20 PM 52.6°F11.4°C 49.4°F9.7°C 89% Calm Calm -- 29.88 in1011.9 mb 0.00 in0.0 mm 0.00 in0.0 mm 0.08 in2.0 mm
06:25 PM 52.7°F11.5°C 49.5°F9.7°C 89% Calm Calm -- 29.88 in1011.9 mb 0.00 in0.0 mm 0.00 in0.0 mm 0.08 in2.0 mm
06:30 PM 52.7°F11.5°C 49.5°F9.7°C 89% Calm Calm -- 29.88 in1011.9 mb 0.00 in0.0 mm 0.00 in0.0 mm 0.08 in2.0 mm
06:35 PM 52.8°F11.6°C 49.3°F9.6°C 88% Calm Calm -- 29.88 in1011.9 mb 0.00 in0.0 mm 0.00 in0.0 mm 0.08 in2.0 mm
06:40 PM 52.7°F11.5°C 49.2°F9.6°C 88% Calm Calm -- 29.88 in1011.9 mb 0.00 in0.0 mm 0.00 in0.0 mm 0.08 in2.0 mm
06:45 PM 52.7°F11.5°C 49.2°F9.6°C 88% Calm Calm -- 29.88 in1011.9 mb 0.00 in0.0 mm 0.00 in0.0 mm 0.08 in2.0 mm
06:50 PM 52.8°F11.6°C 49.6°F9.8°C 89% Calm Calm -- 29.88 in1011.9 mb 0.00 in0.0 mm 0.00 in0.0 mm 0.08 in2.0 mm
06:55 PM 52.8°F11.6°C 49.6°F9.8°C 89% Calm Calm -- 29.88 in1011.9 mb 0.00 in0.0 mm 0.00 in0.0 mm 0.08 in2.0 mm
07:00 PM 52.7°F11.5°C 49.5°F9.7°C 89% Calm Calm -- 29.88 in1011.9 mb 0.00 in0.0 mm 0.00 in0.0 mm 0.08 in2.0 mm
07:05 PM 52.8°F11.6°C 49.6°F9.8°C 89% Calm Calm -- 29.88 in1011.9 mb 0.00 in0.0 mm 0.00 in0.0 mm 0.08 in2.0 mm
07:10 PM 52.8°F11.6°C 49.6°F9.8°C 89% Calm Calm -- 29.88 in1011.9 mb 0.00 in0.0 mm 0.00 in0.0 mm 0.08 in2.0 mm
07:15 PM 52.8°F11.6°C 49.3°F9.6°C 88% Calm Calm -- 29.88 in1011.9 mb 0.00 in0.0 mm 0.00 in0.0 mm 0.08 in2.0 mm
07:20 PM 52.8°F11.6°C 49.3°F9.6°C 88% Calm Calm -- 29.88 in1011.9 mb 0.00 in0.0 mm 0.00 in0.0 mm 0.08 in2.0 mm
07:25 PM 52.7°F11.5°C 49.2°F9.6°C 88% Calm Calm -- 29.88 in1011.9 mb 0.00 in0.0 mm 0.00 in0.0 mm 0.08 in2.0 mm
07:30 PM 52.9°F11.6°C 49.4°F9.7°C 88% Calm Calm -- 29.88 in1011.9 mb 0.00 in0.0 mm 0.00 in0.0 mm 0.08 in2.0 mm
07:35 PM 52.9°F11.6°C 49.4°F9.7°C 88% Calm Calm -- 29.88 in1011.9 mb 0.00 in0.0 mm 0.00 in0.0 mm 0.08 in2.0 mm
07:40 PM 52.9°F11.6°C 49.4°F9.7°C 88% Calm Calm -- 29.88 in1011.9 mb 0.00 in0.0 mm 0.00 in0.0 mm 0.08 in2.0 mm
07:45 PM 52.9°F11.6°C 49.4°F9.7°C 88% Calm Calm -- 29.88 in1011.9 mb 0.00 in0.0 mm 0.00 in0.0 mm 0.08 in2.0 mm
07:50 PM 52.9°F11.6°C 49.4°F9.7°C 88% Calm Calm -- 29.88 in1011.9 mb 0.00 in0.0 mm 0.00 in0.0 mm 0.08 in2.0 mm
07:55 PM 52.8°F11.6°C 49.3°F9.6°C 88% Calm Calm -- 29.88 in1011.9 mb 0.00 in0.0 mm 0.00 in0.0 mm 0.08 in2.0 mm
08:00 PM 52.7°F11.5°C 49.2°F9.6°C 88% Calm Calm -- 29.89 in1012.2 mb 0.00 in0.0 mm 0.00 in0.0 mm 0.08 in2.0 mm
08:05 PM 52.6°F11.4°C 49.1°F9.5°C 88% Calm Calm -- 29.89 in1012.2 mb 0.00 in0.0 mm 0.00 in0.0 mm 0.08 in2.0 mm
08:10 PM 52.5°F11.4°C 49.0°F9.4°C 88% Calm Calm -- 29.88 in1011.9 mb 0.00 in0.0 mm 0.00 in0.0 mm 0.08 in2.0 mm
08:15 PM 52.6°F11.4°C 49.4°F9.7°C 89% Calm Calm -- 29.89 in1012.2 mb 0.00 in0.0 mm 0.00 in0.0 mm 0.08 in2.0 mm
08:20 PM 52.5°F11.4°C 49.0°F9.4°C 88% Calm Calm -- 29.89 in1012.2 mb 0.00 in0.0 mm 0.00 in0.0 mm 0.08 in2.0 mm
08:25 PM 52.2°F11.2°C 48.8°F9.3°C 88% Calm Calm -- 29.89 in1012.2 mb 0.00 in0.0 mm 0.00 in0.0 mm 0.08 in2.0 mm
08:30 PM 52.1°F11.2°C 49.0°F9.4°C 89% Calm Calm -- 29.89 in1012.2 mb 0.00 in0.0 mm 0.00 in0.0 mm 0.08 in2.0 mm
08:35 PM 52.0°F11.1°C 48.9°F9.4°C 89% Calm Calm -- 29.89 in1012.2 mb 0.00 in0.0 mm 0.00 in0.0 mm 0.08 in2.0 mm
08:40 PM 51.9°F11.1°C 48.8°F9.3°C 89% Calm Calm -- 29.89 in1012.2 mb 0.00 in0.0 mm 0.00 in0.0 mm 0.08 in2.0 mm
08:45 PM 51.7°F10.9°C 48.6°F9.2°C 89% Calm Calm -- 29.89 in1012.2 mb 0.00 in0.0 mm 0.00 in0.0 mm 0.08 in2.0 mm
08:50 PM 51.6°F10.9°C 48.8°F9.3°C 90% Calm Calm -- 29.89 in1012.2 mb 0.00 in0.0 mm 0.00 in0.0 mm 0.08 in2.0 mm
08:55 PM 51.4°F10.8°C 48.6°F9.2°C 90% Calm Calm -- 29.89 in1012.2 mb 0.00 in0.0 mm 0.00 in0.0 mm 0.08 in2.0 mm
09:00 PM 51.3°F10.7°C 48.5°F9.2°C 90% Calm Calm -- 29.89 in1012.2 mb 0.00 in0.0 mm 0.00 in0.0 mm 0.08 in2.0 mm
09:05 PM 51.1°F10.6°C 48.3°F9.1°C 90% Calm Calm -- 29.89 in1012.2 mb 0.00 in0.0 mm 0.00 in0.0 mm 0.08 in2.0 mm
09:10 PM 51.0°F10.6°C 48.2°F9.0°C 90% Calm Calm -- 29.89 in1012.2 mb 0.00 in0.0 mm 0.00 in0.0 mm 0.08 in2.0 mm
09:15 PM 50.9°F10.5°C 48.1°F8.9°C 90% Calm Calm -- 29.89 in1012.2 mb 0.00 in0.0 mm 0.00 in0.0 mm 0.08 in2.0 mm
09:20 PM 50.9°F10.5°C 48.1°F8.9°C 90% Calm Calm -- 29.89 in1012.2 mb 0.00 in0.0 mm 0.00 in0.0 mm 0.08 in2.0 mm
09:25 PM 51.0°F10.6°C 48.2°F9.0°C 90% 0.2 mph NE0.3 kmh NE 4.0 mph6.4 kmh 29.89 in1012.2 mb 0.00 in0.0 mm 0.00 in0.0 mm 0.08 in2.0 mm
09:30 PM 51.0°F10.6°C 48.2°F9.0°C 90% 0.9 mph NE1.4 kmh NE 5.0 mph8.0 kmh 29.89 in1012.2 mb 0.00 in0.0 mm 0.00 in0.0 mm 0.08 in2.0 mm
09:35 PM 50.9°F10.5°C 48.1°F8.9°C 90% 2.1 mph NE3.4 kmh NE 5.0 mph8.0 kmh 29.89 in1012.2 mb 0.00 in0.0 mm 0.00 in0.0 mm 0.08 in2.0 mm
09:40 PM 50.8°F10.4°C 48.0°F8.9°C 90% 2.9 mph NE4.7 kmh NE 5.0 mph8.0 kmh 29.89 in1012.2 mb 0.00 in0.0 mm 0.00 in0.0 mm 0.08 in2.0 mm
09:45 PM 50.7°F10.4°C 48.2°F9.0°C 91% 2.7 mph NE4.3 kmh NE 4.0 mph6.4 kmh 29.89 in1012.2 mb 0.00 in0.0 mm 0.00 in0.0 mm 0.08 in2.0 mm
09:50 PM 50.6°F10.3°C 48.1°F8.9°C 91% 1.7 mph NE2.7 kmh NE 3.0 mph4.8 kmh 29.89 in1012.2 mb 0.00 in0.0 mm 0.00 in0.0 mm 0.08 in2.0 mm
09:55 PM 50.4°F10.2°C 47.9°F8.8°C 91% 0.5 mph 0.8 kmh -- 29.90 in1012.5 mb 0.00 in0.0 mm 0.00 in0.0 mm 0.08 in2.0 mm
10:00 PM 50.3°F10.2°C 47.8°F8.8°C 91% Calm Calm -- 29.90 in1012.5 mb 0.00 in0.0 mm 0.00 in0.0 mm 0.08 in2.0 mm
10:05 PM 50.2°F10.1°C 47.7°F8.7°C 91% Calm Calm -- 29.90 in1012.5 mb 0.00 in0.0 mm 0.00 in0.0 mm 0.08 in2.0 mm
10:10 PM 50.1°F10.1°C 47.6°F8.7°C 91% Calm Calm -- 29.90 in1012.5 mb 0.00 in0.0 mm 0.00 in0.0 mm 0.08 in2.0 mm
10:15 PM 49.8°F9.9°C 47.3°F8.5°C 91% Calm Calm -- 29.90 in1012.5 mb 0.00 in0.0 mm 0.00 in0.0 mm 0.08 in2.0 mm
10:20 PM 49.6°F9.8°C 47.1°F8.4°C 91% Calm Calm -- 29.90 in1012.5 mb 0.00 in0.0 mm 0.00 in0.0 mm 0.08 in2.0 mm
10:25 PM 49.6°F9.8°C 47.4°F8.6°C 92% Calm Calm -- 29.90 in1012.5 mb 0.00 in0.0 mm 0.00 in0.0 mm 0.08 in2.0 mm
10:30 PM 49.5°F9.7°C 47.0°F8.3°C 91% Calm Calm -- 29.90 in1012.5 mb 0.00 in0.0 mm 0.00 in0.0 mm 0.08 in2.0 mm
10:35 PM 49.2°F9.6°C 46.7°F8.2°C 91% Calm Calm -- 29.90 in1012.5 mb 0.00 in0.0 mm 0.00 in0.0 mm 0.08 in2.0 mm
10:40 PM 48.9°F9.4°C 46.4°F8.0°C 91% Calm Calm -- 29.90 in1012.5 mb 0.00 in0.0 mm 0.00 in0.0 mm 0.08 in2.0 mm
10:45 PM 48.8°F9.3°C 46.6°F8.1°C 92% Calm Calm -- 29.90 in1012.5 mb 0.00 in0.0 mm 0.00 in0.0 mm 0.08 in2.0 mm
10:50 PM 49.1°F9.5°C 47.2°F8.4°C 93% Calm Calm 2.0 mph3.2 kmh 29.90 in1012.5 mb 0.00 in0.0 mm 0.00 in0.0 mm 0.08 in2.0 mm
10:55 PM 49.3°F9.6°C 47.1°F8.4°C 92% 0.1 mph NE0.2 kmh NE 3.0 mph4.8 kmh 29.90 in1012.5 mb 0.00 in0.0 mm 0.00 in0.0 mm 0.08 in2.0 mm
11:00 PM 49.4°F9.7°C 47.2°F8.4°C 92% 0.6 mph NE1.0 kmh NE 4.0 mph6.4 kmh 29.90 in1012.5 mb 0.00 in0.0 mm 0.00 in0.0 mm 0.08 in2.0 mm
11:05 PM 49.4°F9.7°C 47.2°F8.4°C 92% 1.1 mph NE1.8 kmh NE 4.0 mph6.4 kmh 29.90 in1012.5 mb 0.00 in0.0 mm 0.00 in0.0 mm 0.08 in2.0 mm
11:10 PM 49.4°F9.7°C 47.2°F8.4°C 92% 1.0 mph NNE1.6 kmh NNE 2.0 mph3.2 kmh 29.90 in1012.5 mb 0.00 in0.0 mm 0.00 in0.0 mm 0.08 in2.0 mm
11:15 PM 49.2°F9.6°C 46.7°F8.2°C 91% 0.4 mph NNE0.6 kmh NNE 2.0 mph3.2 kmh 29.90 in1012.5 mb 0.00 in0.0 mm 0.00 in0.0 mm 0.08 in2.0 mm
11:20 PM 49.3°F9.6°C 46.8°F8.2°C 91% 0.4 mph NE0.6 kmh NE 3.0 mph4.8 kmh 29.90 in1012.5 mb 0.00 in0.0 mm 0.00 in0.0 mm 0.08 in2.0 mm
11:25 PM 49.5°F9.7°C 47.0°F8.3°C 91% 1.1 mph NE1.8 kmh NE 3.0 mph4.8 kmh 29.90 in1012.5 mb 0.00 in0.0 mm 0.00 in0.0 mm 0.08 in2.0 mm
11:30 PM 49.9°F9.9°C 47.1°F8.4°C 90% 1.8 mph NE2.9 kmh NE 4.0 mph6.4 kmh 29.90 in1012.5 mb 0.00 in0.0 mm 0.00 in0.0 mm 0.08 in2.0 mm
11:35 PM 50.3°F10.2°C 46.9°F8.3°C 88% 2.0 mph NE3.2 kmh NE 4.0 mph6.4 kmh 29.90 in1012.5 mb 0.00 in0.0 mm 0.00 in0.0 mm 0.08 in2.0 mm
11:40 PM 50.2°F10.1°C 46.5°F8.1°C 87% 1.9 mph NE3.1 kmh NE 4.0 mph6.4 kmh 29.90 in1012.5 mb 0.00 in0.0 mm 0.00 in0.0 mm 0.08 in2.0 mm
11:45 PM 49.9°F9.9°C 46.5°F8.1°C 88% 1.3 mph NE2.1 kmh NE 2.0 mph3.2 kmh 29.90 in1012.5 mb 0.00 in0.0 mm 0.00 in0.0 mm 0.08 in2.0 mm
11:50 PM 49.8°F9.9°C 46.4°F8.0°C 88% 0.3 mph NE0.5 kmh NE 1.0 mph1.6 kmh 29.90 in1012.5 mb 0.00 in0.0 mm 0.00 in0.0 mm 0.08 in2.0 mm
11:55 PM 49.9°F9.9°C 46.8°F8.2°C 89% Calm Calm 2.0 mph3.2 kmh 29.90 in1012.5 mb 0.00 in0.0 mm 0.00 in0.0 mm 0.08 in2.0 mm